createdAt,value
2019-02-17T00:00:06.616Z,4.69
2019-02-17T00:01:06.618Z,4.64
2019-02-17T00:02:06.588Z,4.67
2019-02-17T00:03:06.577Z,4.65
2019-02-17T00:04:06.564Z,4.72
2019-02-17T00:05:06.557Z,4.59
2019-02-17T00:06:06.563Z,4.62
2019-02-17T00:07:06.546Z,4.83
2019-02-17T00:08:06.564Z,4.77
2019-02-17T00:09:06.531Z,4.83
2019-02-17T00:10:06.506Z,4.77
2019-02-17T00:11:06.524Z,4.71
2019-02-17T00:12:06.480Z,5.04
2019-02-17T00:13:06.496Z,5.09
2019-02-17T00:14:06.456Z,5.30
2019-02-17T00:15:06.455Z,5.38
2019-02-17T00:16:06.450Z,5.40
2019-02-17T00:17:06.432Z,5.56
2019-02-17T00:18:06.412Z,5.42
2019-02-17T00:19:06.406Z,5.65
2019-02-17T00:20:08.065Z,5.67
2019-02-17T00:21:06.392Z,5.69
2019-02-17T00:22:06.375Z,5.78
2019-02-17T00:23:06.370Z,5.75
2019-02-17T00:24:06.348Z,5.69
2019-02-17T00:25:06.357Z,5.58
2019-02-17T00:26:06.387Z,5.27
2019-02-17T00:27:06.331Z,4.90
2019-02-17T00:28:06.305Z,4.54
2019-02-17T00:29:06.295Z,4.11
2019-02-17T00:30:06.282Z,3.98
2019-02-17T00:31:06.293Z,3.81
2019-02-17T00:32:06.267Z,3.60
2019-02-17T00:33:06.267Z,3.35
2019-02-17T00:34:06.242Z,2.98
2019-02-17T00:35:06.230Z,2.76
2019-02-17T00:36:06.253Z,2.56
2019-02-17T00:37:06.209Z,2.20
2019-02-17T00:38:06.200Z,2.02
2019-02-17T00:39:06.194Z,2.68
2019-02-17T00:40:06.176Z,3.05
2019-02-17T00:41:06.194Z,3.60
2019-02-17T00:42:06.153Z,4.16
2019-02-17T00:43:06.144Z,4.43
2019-02-17T00:44:06.139Z,4.64
2019-02-17T00:45:06.120Z,4.75
2019-02-17T00:46:06.127Z,5.11
2019-02-17T00:47:06.113Z,5.19
2019-02-17T00:48:06.092Z,5.22
2019-02-17T00:49:06.090Z,5.35
2019-02-17T00:50:07.253Z,5.41
2019-02-17T00:51:06.069Z,5.42
2019-02-17T00:52:06.049Z,5.41
2019-02-17T00:53:06.032Z,5.40
2019-02-17T00:54:06.027Z,5.42
2019-02-17T00:55:06.023Z,5.40
2019-02-17T00:56:06.035Z,5.49
2019-02-17T00:57:05.989Z,5.47
2019-02-17T00:58:05.990Z,5.42
2019-02-17T00:59:10.067Z,5.44
2019-02-17T01:00:05.957Z,5.41
2019-02-17T01:01:05.965Z,5.42
2019-02-17T01:02:05.954Z,5.29
2019-02-17T01:03:05.931Z,5.32
2019-02-17T01:04:05.925Z,5.41
2019-02-17T01:05:05.915Z,5.41
2019-02-17T01:06:05.917Z,5.45
2019-02-17T01:07:05.889Z,5.56
2019-02-17T01:08:05.883Z,5.65
2019-02-17T01:09:05.874Z,5.66
2019-02-17T01:10:05.857Z,5.60
2019-02-17T01:11:05.843Z,5.62
2019-02-17T01:12:05.851Z,5.48
2019-02-17T01:13:05.824Z,5.41
2019-02-17T01:14:05.820Z,5.48
2019-02-17T01:15:05.817Z,5.49
2019-02-17T01:16:05.798Z,5.41
2019-02-17T01:17:05.799Z,5.37
2019-02-17T01:18:05.858Z,5.41
2019-02-17T01:19:05.762Z,5.42
2019-02-17T01:20:05.757Z,5.27
2019-02-17T01:21:05.760Z,5.19
2019-02-17T01:22:05.746Z,5.08
2019-02-17T01:23:05.717Z,5.22
2019-02-17T01:24:05.724Z,5.22
2019-02-17T01:25:05.711Z,5.15
2019-02-17T01:26:05.687Z,5.20
2019-02-17T01:27:05.693Z,5.26
2019-02-17T01:28:05.666Z,5.29
2019-02-17T01:29:05.656Z,5.41
2019-02-17T01:30:05.643Z,5.24
2019-02-17T01:31:05.636Z,5.02
2019-02-17T01:32:05.638Z,5.01
2019-02-17T01:33:05.610Z,5.11
2019-02-17T01:34:05.616Z,4.94
2019-02-17T01:35:05.589Z,4.57
2019-02-17T01:36:05.601Z,4.35
2019-02-17T01:37:05.584Z,4.04
2019-02-17T01:38:05.557Z,3.99
2019-02-17T01:39:05.549Z,3.78
2019-02-17T01:40:05.547Z,3.52
2019-02-17T01:41:05.547Z,3.49
2019-02-17T01:42:05.530Z,3.28
2019-02-17T01:43:05.510Z,3.20
2019-02-17T01:44:05.503Z,3.10
2019-02-17T01:45:05.487Z,2.98
2019-02-17T01:46:05.493Z,2.86
2019-02-17T01:47:05.479Z,2.83
2019-02-17T01:48:05.497Z,2.77
2019-02-17T01:49:05.442Z,2.74
2019-02-17T01:50:05.434Z,2.58
2019-02-17T01:51:05.421Z,2.48
2019-02-17T01:52:06.363Z,2.29
2019-02-17T01:53:05.401Z,2.26
2019-02-17T01:54:05.393Z,2.01
2019-02-17T01:55:05.376Z,1.88
2019-02-17T01:56:05.371Z,1.70
2019-02-17T01:57:05.369Z,1.79
2019-02-17T01:58:05.344Z,1.92
2019-02-17T01:59:05.333Z,2.11
2019-02-17T02:00:05.321Z,2.14
2019-02-17T02:01:05.321Z,2.23
2019-02-17T02:02:05.306Z,2.36
2019-02-17T02:03:05.314Z,2.44
2019-02-17T02:04:05.295Z,2.53
2019-02-17T02:05:05.282Z,2.77
2019-02-17T02:06:05.274Z,2.97
2019-02-17T02:07:05.251Z,3.15
2019-02-17T02:08:05.276Z,3.22
2019-02-17T02:09:05.229Z,3.35
2019-02-17T02:10:05.217Z,3.34
2019-02-17T02:11:05.213Z,3.31
2019-02-17T02:12:05.202Z,3.22
2019-02-17T02:13:05.199Z,3.19
2019-02-17T02:14:06.467Z,3.20
2019-02-17T02:15:05.194Z,3.17
2019-02-17T02:16:05.153Z,3.04
2019-02-17T02:17:05.185Z,3.08
2019-02-17T02:18:05.152Z,2.98
2019-02-17T02:19:05.129Z,3.07
2019-02-17T02:20:05.123Z,3.12
2019-02-17T02:21:05.104Z,3.22
2019-02-17T02:22:05.092Z,3.37
2019-02-17T02:23:05.093Z,3.34
2019-02-17T02:24:05.068Z,3.26
2019-02-17T02:25:05.055Z,3.15
2019-02-17T02:26:05.044Z,2.95
2019-02-17T02:27:05.042Z,2.81
2019-02-17T02:28:05.035Z,2.71
2019-02-17T02:29:05.016Z,2.77
2019-02-17T02:30:05.014Z,2.77
2019-02-17T02:31:05.011Z,2.92
2019-02-17T02:32:04.982Z,3.16
2019-02-17T02:33:04.982Z,3.39
2019-02-17T02:34:04.962Z,3.46
2019-02-17T02:35:04.954Z,3.56
2019-02-17T02:36:04.942Z,3.74
2019-02-17T02:37:04.957Z,3.80
2019-02-17T02:38:04.933Z,3.77
2019-02-17T02:39:04.932Z,3.80
2019-02-17T02:40:04.892Z,3.74
2019-02-17T02:41:04.883Z,3.64
2019-02-17T02:42:04.871Z,3.59
2019-02-17T02:43:04.881Z,3.56
2019-02-17T02:44:04.865Z,3.59
2019-02-17T02:45:04.861Z,3.59
2019-02-17T02:46:04.832Z,3.54
2019-02-17T02:47:04.827Z,3.56
2019-02-17T02:48:04.827Z,3.78
2019-02-17T02:49:04.849Z,3.82
2019-02-17T02:50:04.792Z,3.75
2019-02-17T02:51:04.787Z,3.98
2019-02-17T02:52:04.772Z,3.93
2019-02-17T02:53:04.770Z,3.95
2019-02-17T02:54:04.745Z,4.07
2019-02-17T02:55:04.731Z,4.14
2019-02-17T02:56:04.721Z,4.11
2019-02-17T02:57:04.720Z,4.18
2019-02-17T02:58:04.783Z,4.28
2019-02-17T02:59:04.728Z,4.36
2019-02-17T03:00:04.685Z,4.42
2019-02-17T03:01:04.667Z,4.44
2019-02-17T03:02:04.658Z,4.53
2019-02-17T03:03:04.645Z,4.57
2019-02-17T03:04:04.656Z,4.64
2019-02-17T03:05:04.622Z,4.59
2019-02-17T03:06:04.617Z,4.69
2019-02-17T03:07:04.600Z,4.84
2019-02-17T03:08:04.589Z,4.79
2019-02-17T03:09:07.678Z,4.83
2019-02-17T03:21:02.123Z,4.56
2019-02-17T03:21:57.727Z,4.65
2019-02-17T03:22:58.246Z,4.69
2019-02-17T03:24:02.144Z,4.62
2019-02-17T03:24:58.875Z,4.79
2019-02-17T03:26:18.445Z,4.84
2019-02-17T03:26:58.280Z,5.04
2019-02-17T03:27:57.977Z,5.14
2019-02-17T03:29:06.890Z,5.23
2019-02-17T03:30:05.180Z,5.38
2019-02-17T03:30:58.618Z,5.30
2019-02-17T03:32:01.385Z,5.35
2019-02-17T03:32:59.765Z,5.29
2019-02-17T03:34:02.004Z,5.26
2019-02-17T03:36:10.218Z,5.26
2019-02-17T03:37:11.366Z,5.23
2019-02-17T03:38:08.268Z,5.22
2019-02-17T03:39:11.059Z,5.20
2019-02-17T03:40:08.606Z,5.23
2019-02-17T03:41:10.971Z,5.19
2019-02-17T03:42:09.658Z,5.17
2019-02-17T03:43:09.249Z,5.23
2019-02-17T03:44:07.930Z,5.24
2019-02-17T03:45:12.031Z,5.24
2019-02-17T03:46:08.860Z,5.35
2019-02-17T03:47:08.562Z,5.30
2019-02-17T03:48:23.838Z,5.40
2019-02-17T03:49:11.172Z,5.27
2019-02-17T03:50:09.095Z,5.12
2019-02-17T03:51:23.949Z,5.06
2019-02-17T03:52:16.273Z,4.99
2019-02-17T03:53:13.006Z,4.77
2019-02-17T03:54:09.734Z,4.65
2019-02-17T03:55:12.953Z,4.49
2019-02-17T03:56:08.518Z,4.42
2019-02-17T03:57:07.911Z,4.16
2019-02-17T03:58:10.141Z,3.93
2019-02-17T03:59:08.645Z,4.06
2019-02-17T04:00:16.894Z,4.13
2019-02-17T04:01:09.989Z,4.04
2019-02-17T04:02:11.326Z,3.80
2019-02-17T04:03:09.972Z,3.62
2019-02-17T04:04:08.923Z,3.33
2019-02-17T04:05:25.888Z,3.08
2019-02-17T04:06:10.133Z,2.77
2019-02-17T04:07:07.677Z,2.50
2019-02-17T04:08:10.038Z,2.23
2019-02-17T04:09:07.796Z,1.92
2019-02-17T04:10:15.479Z,1.77
2019-02-17T04:11:11.085Z,1.54
2019-02-17T04:12:16.398Z,1.32
2019-02-17T04:13:13.762Z,1.14
2019-02-17T04:14:09.789Z,1.10
2019-02-17T04:15:09.071Z,0.86
2019-02-17T04:16:08.971Z,0.84
2019-02-17T04:17:08.366Z,0.71
2019-02-17T04:18:08.667Z,0.64
2019-02-17T04:19:09.508Z,0.59
2019-02-17T04:20:09.307Z,0.67
2019-02-17T04:21:08.391Z,0.59
2019-02-17T04:22:07.688Z,0.31
2019-02-17T04:23:07.586Z,0.34
2019-02-17T04:24:07.114Z,0.25
2019-02-17T04:25:10.776Z,0.34
2019-02-17T04:26:08.430Z,0.31
2019-02-17T04:27:08.906Z,0.28
2019-02-17T04:28:08.342Z,0.22
2019-02-17T04:29:10.296Z,0.23
2019-02-17T04:30:13.092Z,0.31
2019-02-17T04:31:09.997Z,0.34
2019-02-17T04:32:06.935Z,0.23
2019-02-17T04:33:18.260Z,0.20
2019-02-17T04:34:13.504Z,0.02
2019-02-17T04:35:19.154Z,0.04
2019-02-17T04:36:14.848Z,-0.09
2019-02-17T04:37:13.837Z,-0.05
2019-02-17T04:38:08.314Z,-0.14
2019-02-17T04:39:08.631Z,-0.19
2019-02-17T04:40:33.521Z,-0.09
2019-02-17T04:41:08.538Z,-0.21
2019-02-17T04:42:07.724Z,-0.20
2019-02-17T04:43:07.323Z,-0.16
2019-02-17T04:44:07.942Z,-0.21
2019-02-17T04:45:10.407Z,-0.37
2019-02-17T04:46:08.372Z,-0.38
2019-02-17T04:47:08.076Z,-0.31
2019-02-17T04:48:08.020Z,-0.26
2019-02-17T04:49:06.954Z,-0.44
2019-02-17T04:50:09.947Z,-0.50
2019-02-17T04:51:08.094Z,-0.67
2019-02-17T04:52:07.902Z,-0.60
2019-02-17T04:53:12.716Z,-0.74
2019-02-17T04:54:09.156Z,-0.85
2019-02-17T04:55:06.695Z,-0.86
2019-02-17T04:56:33.837Z,-0.74
2019-02-17T04:57:13.465Z,-0.92
2019-02-17T04:58:18.898Z,-0.96
2019-02-17T04:59:07.335Z,-1.05
2019-02-17T05:00:08.071Z,-1.13
2019-02-17T05:01:11.230Z,-1.15
2019-02-17T05:02:13.198Z,-1.21
2019-02-17T05:03:17.191Z,-1.29
2019-02-17T05:04:07.486Z,-1.21
2019-02-17T05:05:12.802Z,-1.28
2019-02-17T05:06:09.228Z,-1.35
2019-02-17T05:07:07.804Z,-1.44
2019-02-17T05:08:07.082Z,-1.50
2019-02-17T05:09:08.841Z,-1.46
2019-02-17T05:10:08.080Z,-1.35
2019-02-17T05:11:10.498Z,-1.33
2019-02-17T05:12:07.325Z,-1.07
2019-02-17T05:13:10.307Z,-1.08
2019-02-17T05:14:07.243Z,-1.17
2019-02-17T05:15:12.374Z,-1.18
2019-02-17T05:16:15.545Z,-1.17
2019-02-17T05:17:22.869Z,-1.21
2019-02-17T05:18:07.682Z,-1.23
2019-02-17T05:19:06.452Z,-1.36
2019-02-17T05:20:07.082Z,-1.46
2019-02-17T05:21:08.823Z,-1.44
2019-02-17T05:22:06.887Z,-1.02
2019-02-17T05:23:07.834Z,-0.95
2019-02-17T05:24:06.800Z,-0.92
2019-02-17T05:25:07.733Z,-0.76
2019-02-17T05:26:34.567Z,-0.74
2019-02-17T05:27:07.640Z,-0.95
2019-02-17T05:28:06.321Z,-0.80
2019-02-17T05:29:09.911Z,-0.85
2019-02-17T05:30:07.353Z,-0.78
2019-02-17T05:31:09.630Z,-0.59
2019-02-17T05:32:07.802Z,-0.65
2019-02-17T05:33:08.506Z,-0.68
2019-02-17T05:34:06.361Z,-0.65
2019-02-17T05:35:07.594Z,-0.65
2019-02-17T05:36:08.213Z,-0.24
2019-02-17T05:37:06.591Z,0.08
2019-02-17T05:38:06.389Z,-0.01
2019-02-17T05:39:06.593Z,-0.16
2019-02-17T05:40:06.918Z,-0.14
2019-02-17T05:41:08.456Z,-0.13
2019-02-17T05:42:07.210Z,-0.06
2019-02-17T05:43:11.028Z,-0.20
2019-02-17T05:44:06.447Z,-0.21
2019-02-17T05:45:06.438Z,-0.38
2019-02-17T05:46:17.408Z,-0.30
2019-02-17T05:47:08.501Z,-0.30
2019-02-17T05:48:06.362Z,-0.35
2019-02-17T05:49:06.673Z,-0.23
2019-02-17T05:50:14.054Z,-0.17
2019-02-17T05:51:09.454Z,-0.20
2019-02-17T05:52:06.489Z,-0.14
2019-02-17T05:53:07.106Z,-0.19
2019-02-17T05:54:07.016Z,-0.21
2019-02-17T05:55:09.072Z,-0.01
2019-02-17T05:56:08.978Z,-0.06
2019-02-17T05:57:07.778Z,0.05
2019-02-17T05:58:08.371Z,0.23
2019-02-17T05:59:06.444Z,0.30
2019-02-17T06:00:07.469Z,0.60
2019-02-17T06:01:28.671Z,1.08
2019-02-17T06:02:06.671Z,1.13
2019-02-17T06:03:06.579Z,1.50
2019-02-17T06:04:07.187Z,1.74
2019-02-17T06:05:10.066Z,1.90
2019-02-17T06:06:08.634Z,2.02
2019-02-17T06:07:06.595Z,2.25
2019-02-17T06:08:07.227Z,2.45
2019-02-17T06:09:06.926Z,2.41
2019-02-17T06:10:07.236Z,2.58
2019-02-17T06:11:35.742Z,2.61
2019-02-17T06:12:06.049Z,2.43
2019-02-17T06:13:06.329Z,2.29
2019-02-17T06:14:07.975Z,2.14
2019-02-17T06:15:06.152Z,2.25
2019-02-17T06:16:07.484Z,2.30
2019-02-17T06:17:07.901Z,2.27
2019-02-17T06:18:06.379Z,2.30
2019-02-17T06:19:06.378Z,2.26
2019-02-17T06:20:06.768Z,2.33
2019-02-17T06:21:07.720Z,2.38
2019-02-17T06:22:07.426Z,2.43
2019-02-17T06:23:06.817Z,2.29
2019-02-17T06:24:07.741Z,2.41
2019-02-17T06:25:06.321Z,2.26
2019-02-17T06:26:07.142Z,2.15
2019-02-17T06:27:10.223Z,1.92
2019-02-17T06:28:07.564Z,1.70
2019-02-17T06:29:06.458Z,1.49
2019-02-17T06:30:20.691Z,1.64
2019-02-17T06:31:14.092Z,1.74
2019-02-17T06:32:06.351Z,1.92
2019-02-17T06:33:05.339Z,2.04
2019-02-17T06:34:05.323Z,2.27
2019-02-17T06:35:05.313Z,2.48
2019-02-17T06:36:05.317Z,2.62
2019-02-17T06:37:05.330Z,2.56
2019-02-17T06:38:05.283Z,2.74
2019-02-17T06:39:05.272Z,2.74
2019-02-17T06:40:05.261Z,2.53
2019-02-17T06:41:05.249Z,2.53
2019-02-17T06:42:05.251Z,2.48
2019-02-17T06:43:05.235Z,2.45
2019-02-17T06:44:05.218Z,2.45
2019-02-17T06:45:05.224Z,2.45
2019-02-17T06:46:05.197Z,2.73
2019-02-17T06:47:05.241Z,2.68
2019-02-17T06:48:05.172Z,2.77
2019-02-17T06:49:05.174Z,2.73
2019-02-17T06:50:05.167Z,2.81
2019-02-17T06:51:05.181Z,2.80
2019-02-17T06:52:05.139Z,2.74
2019-02-17T06:53:05.166Z,2.73
2019-02-17T06:54:05.110Z,2.73
2019-02-17T06:55:05.100Z,2.71
2019-02-17T06:56:05.091Z,2.73
2019-02-17T06:57:05.082Z,2.66
2019-02-17T06:58:05.129Z,2.83
2019-02-17T06:59:05.103Z,2.79
2019-02-17T07:00:05.052Z,2.76
2019-02-17T07:01:05.043Z,2.76
2019-02-17T07:02:05.026Z,2.87
2019-02-17T07:03:05.039Z,2.74
2019-02-17T07:04:05.030Z,2.76
2019-02-17T07:05:05.021Z,2.56
2019-02-17T07:06:05.000Z,2.29
2019-02-17T07:07:04.979Z,2.19
2019-02-17T07:08:04.996Z,2.04
2019-02-17T07:09:04.963Z,2.02
2019-02-17T07:10:04.971Z,2.12
2019-02-17T07:11:04.937Z,1.93
2019-02-17T07:12:04.964Z,1.89
2019-02-17T07:13:04.935Z,1.85
2019-02-17T07:14:04.904Z,1.64
2019-02-17T07:15:04.891Z,1.53
2019-02-17T07:16:04.890Z,1.50
2019-02-17T07:17:04.891Z,1.47
2019-02-17T07:18:04.876Z,1.56
2019-02-17T07:19:04.857Z,1.60
2019-02-17T07:20:04.841Z,1.65
2019-02-17T07:21:04.945Z,2.23
2019-02-17T07:22:04.820Z,3.08
2019-02-17T07:23:04.820Z,3.82
2019-02-17T07:24:04.796Z,4.31
2019-02-17T07:25:04.783Z,4.68
2019-02-17T07:26:04.774Z,4.71
2019-02-17T07:27:04.785Z,4.34
2019-02-17T07:28:04.798Z,4.24
2019-02-17T07:29:04.754Z,4.46
2019-02-17T07:30:04.735Z,4.57
2019-02-17T07:31:04.737Z,4.74
2019-02-17T07:32:04.711Z,5.24
2019-02-17T07:33:04.757Z,5.49
2019-02-17T07:34:04.690Z,5.87
2019-02-17T07:35:04.731Z,6.21
2019-02-17T07:36:04.676Z,6.53
2019-02-17T07:37:04.689Z,6.91
2019-02-17T07:38:04.657Z,7.12
2019-02-17T07:39:04.679Z,7.27
2019-02-17T07:40:04.654Z,7.41
2019-02-17T07:41:04.619Z,7.54
2019-02-17T07:42:04.632Z,7.99
2019-02-17T07:43:04.623Z,8.27
2019-02-17T07:44:04.609Z,8.61
2019-02-17T07:45:04.574Z,8.98
2019-02-17T07:46:04.606Z,9.12
2019-02-17T07:47:04.558Z,9.59
2019-02-17T07:48:04.556Z,10.02
2019-02-17T07:49:04.565Z,10.31
2019-02-17T07:50:04.542Z,10.60
2019-02-17T07:51:04.562Z,10.60
2019-02-17T07:52:04.500Z,10.16
2019-02-17T07:53:04.490Z,10.04
2019-02-17T07:54:04.491Z,10.26
2019-02-17T07:55:04.472Z,10.16
2019-02-17T07:56:04.483Z,10.26
2019-02-17T07:57:04.450Z,10.43
2019-02-17T07:58:04.434Z,10.49
2019-02-17T07:59:04.477Z,10.51
2019-02-17T08:00:04.412Z,10.36
2019-02-17T08:01:04.439Z,10.16
2019-02-17T08:02:04.392Z,9.81
2019-02-17T08:03:04.404Z,9.75
2019-02-17T08:04:04.441Z,9.62
2019-02-17T08:05:04.396Z,10.09
2019-02-17T08:06:04.356Z,10.14
2019-02-17T08:07:04.654Z,10.34
2019-02-17T08:08:04.329Z,10.58
2019-02-17T08:09:04.327Z,10.42
2019-02-17T08:10:04.325Z,10.01
2019-02-17T08:11:04.523Z,9.99
2019-02-17T08:12:04.282Z,10.39
2019-02-17T08:13:04.273Z,10.98
2019-02-17T08:14:04.274Z,11.44
2019-02-17T08:15:04.266Z,11.72
2019-02-17T08:16:04.238Z,11.30
2019-02-17T08:17:04.235Z,11.19
2019-02-17T08:18:04.252Z,11.44
2019-02-17T08:19:04.241Z,11.60
2019-02-17T08:20:04.198Z,11.88
2019-02-17T08:21:04.187Z,11.70
2019-02-17T08:22:04.197Z,11.67
2019-02-17T08:23:04.164Z,11.82
2019-02-17T08:24:04.170Z,11.53
2019-02-17T08:25:04.151Z,11.48
2019-02-17T08:26:04.181Z,11.35
2019-02-17T08:27:04.707Z,11.35
2019-02-17T08:28:04.121Z,11.33
2019-02-17T08:29:04.557Z,11.49
2019-02-17T08:30:04.088Z,11.67
2019-02-17T08:31:04.079Z,11.60
2019-02-17T08:32:04.101Z,11.87
2019-02-17T08:33:04.056Z,11.98
2019-02-17T08:34:04.190Z,11.87
2019-02-17T08:35:04.035Z,12.16
2019-02-17T08:36:04.220Z,12.38
2019-02-17T08:37:04.187Z,12.16
2019-02-17T08:38:04.206Z,12.36
2019-02-17T08:39:04.145Z,12.52
2019-02-17T08:40:03.978Z,12.74
2019-02-17T08:41:04.001Z,12.95
2019-02-17T08:42:03.960Z,13.16
2019-02-17T08:43:03.958Z,12.87
2019-02-17T08:44:03.938Z,12.59
2019-02-17T08:45:03.946Z,12.26
2019-02-17T08:46:03.917Z,12.16
2019-02-17T08:47:03.924Z,11.87
2019-02-17T08:48:03.906Z,11.87
2019-02-17T08:49:03.881Z,11.69
2019-02-17T08:50:03.923Z,11.81
2019-02-17T08:51:04.132Z,11.82
2019-02-17T08:52:03.862Z,11.96
2019-02-17T08:53:03.845Z,11.98
2019-02-17T08:54:03.837Z,12.04
2019-02-17T08:55:03.830Z,12.04
2019-02-17T08:56:03.822Z,12.08
2019-02-17T08:57:03.796Z,11.66
2019-02-17T08:58:03.805Z,11.63
2019-02-17T08:59:03.808Z,11.74
2019-02-17T09:00:03.772Z,11.85
2019-02-17T09:01:03.752Z,11.72
2019-02-17T09:02:06.274Z,11.81
2019-02-17T09:03:03.748Z,12.25
2019-02-17T09:04:03.754Z,12.11
2019-02-17T09:05:03.753Z,12.29
2019-02-17T09:06:03.768Z,12.43
2019-02-17T09:07:05.808Z,12.79
2019-02-17T09:08:04.090Z,13.04
2019-02-17T09:09:03.715Z,13.25
2019-02-17T09:10:03.678Z,13.12
2019-02-17T09:11:03.641Z,13.16
2019-02-17T09:12:03.669Z,13.36
2019-02-17T09:13:03.621Z,13.63
2019-02-17T09:14:03.608Z,13.75
2019-02-17T09:15:03.632Z,13.65
2019-02-17T09:16:03.584Z,14.02
2019-02-17T09:17:03.574Z,14.01
2019-02-17T09:18:03.586Z,13.79
2019-02-17T09:19:03.852Z,13.25
2019-02-17T09:20:03.555Z,13.63
2019-02-17T09:21:03.554Z,14.01
2019-02-17T09:22:03.576Z,13.96
2019-02-17T09:23:03.553Z,13.91
2019-02-17T09:24:03.505Z,13.59
2019-02-17T09:25:03.535Z,13.62
2019-02-17T09:26:03.499Z,13.90
2019-02-17T09:27:03.466Z,14.02
2019-02-17T09:28:03.455Z,13.91
2019-02-17T09:29:05.600Z,13.83
2019-02-17T09:30:03.468Z,14.01
2019-02-17T09:31:03.422Z,14.20
2019-02-17T09:32:03.428Z,14.41
2019-02-17T09:33:03.452Z,14.75
2019-02-17T09:34:03.541Z,15.04
2019-02-17T09:35:03.378Z,15.27
2019-02-17T09:36:03.381Z,13.91
2019-02-17T09:37:03.361Z,13.68
2019-02-17T09:38:03.349Z,14.12
2019-02-17T09:39:03.344Z,14.24
2019-02-17T09:40:03.338Z,13.72
2019-02-17T09:41:03.357Z,13.48
2019-02-17T09:42:03.316Z,13.24
2019-02-17T09:43:03.294Z,13.35
2019-02-17T09:44:03.286Z,13.55
2019-02-17T09:45:03.279Z,13.47
2019-02-17T09:46:03.279Z,13.32
2019-02-17T09:47:03.246Z,13.39
2019-02-17T09:48:03.236Z,13.53
2019-02-17T09:49:03.233Z,13.50
2019-02-17T09:50:03.250Z,13.62
2019-02-17T09:51:03.214Z,13.98
2019-02-17T09:52:03.202Z,13.90
2019-02-17T09:53:03.179Z,13.39
2019-02-17T09:54:03.169Z,13.22
2019-02-17T09:55:03.209Z,13.24
2019-02-17T09:56:03.162Z,13.50
2019-02-17T09:57:03.147Z,13.90
2019-02-17T09:58:03.130Z,13.75
2019-02-17T09:59:03.134Z,13.47
2019-02-17T10:00:04.161Z,13.54
2019-02-17T10:01:03.105Z,13.69
2019-02-17T10:02:03.442Z,14.08
2019-02-17T10:03:03.070Z,14.23
2019-02-17T10:04:03.061Z,14.16
2019-02-17T10:05:03.059Z,13.90
2019-02-17T10:06:03.082Z,13.98
2019-02-17T10:07:03.030Z,14.49
2019-02-17T10:08:03.016Z,14.71
2019-02-17T10:09:03.008Z,14.85
2019-02-17T10:10:03.016Z,15.11
2019-02-17T10:11:02.999Z,15.66
2019-02-17T10:12:02.971Z,15.30
2019-02-17T10:13:02.964Z,15.68
2019-02-17T10:14:02.957Z,15.91
2019-02-17T10:15:02.945Z,15.88
2019-02-17T10:16:02.943Z,15.96
2019-02-17T10:17:02.918Z,15.78
2019-02-17T10:18:02.923Z,15.04
2019-02-17T10:19:02.911Z,14.74
2019-02-17T10:20:02.889Z,15.15
2019-02-17T10:21:02.919Z,14.95
2019-02-17T10:22:02.869Z,15.70
2019-02-17T10:23:02.853Z,15.86
2019-02-17T10:24:02.839Z,16.27
2019-02-17T10:25:02.834Z,16.82
2019-02-17T10:26:02.822Z,17.39
2019-02-17T10:27:02.834Z,17.05
2019-02-17T10:28:02.806Z,16.37
2019-02-17T10:29:02.788Z,16.73
2019-02-17T10:30:02.788Z,16.90
2019-02-17T10:31:02.764Z,16.10
2019-02-17T10:32:02.765Z,16.08
2019-02-17T10:33:02.743Z,15.68
2019-02-17T10:34:02.732Z,15.59
2019-02-17T10:35:02.749Z,15.98
2019-02-17T10:36:02.718Z,16.45
2019-02-17T10:37:02.710Z,17.14
2019-02-17T10:38:02.690Z,17.53
2019-02-17T10:39:02.681Z,17.96
2019-02-17T10:40:02.669Z,17.83
2019-02-17T10:41:02.660Z,17.66
2019-02-17T10:42:02.662Z,16.60
2019-02-17T10:43:03.651Z,15.62
2019-02-17T10:44:02.651Z,15.91
2019-02-17T10:45:02.613Z,16.10
2019-02-17T10:46:02.601Z,15.77
2019-02-17T10:47:02.611Z,16.11
2019-02-17T10:48:02.579Z,16.50
2019-02-17T10:49:02.567Z,16.22
2019-02-17T10:50:02.558Z,16.67
2019-02-17T10:51:02.556Z,17.55
2019-02-17T10:52:02.554Z,17.86
2019-02-17T10:53:02.541Z,17.70
2019-02-17T10:54:02.516Z,17.32
2019-02-17T10:55:02.521Z,17.14
2019-02-17T10:56:02.504Z,16.99
2019-02-17T10:57:02.528Z,16.82
2019-02-17T10:58:02.503Z,16.91
2019-02-17T10:59:02.458Z,17.03
2019-02-17T11:00:02.450Z,17.05
2019-02-17T11:01:02.443Z,16.75
2019-02-17T11:02:02.505Z,16.06
2019-02-17T11:03:02.460Z,15.98
2019-02-17T11:04:02.430Z,16.32
2019-02-17T11:05:02.397Z,17.17
2019-02-17T11:06:02.394Z,17.35
2019-02-17T11:07:02.417Z,16.96
2019-02-17T11:08:02.375Z,17.38
2019-02-17T11:09:02.636Z,17.68
2019-02-17T11:10:02.339Z,17.99
2019-02-17T11:11:02.329Z,18.02
2019-02-17T11:12:02.337Z,17.39
2019-02-17T11:13:02.328Z,17.06
2019-02-17T11:14:02.329Z,16.99
2019-02-17T11:15:02.328Z,17.30
2019-02-17T11:16:02.300Z,17.36
2019-02-17T11:17:02.284Z,17.36
2019-02-17T11:18:02.281Z,17.47
2019-02-17T11:19:02.785Z,18.19
2019-02-17T11:20:02.233Z,18.99
2019-02-17T11:21:02.227Z,19.10
2019-02-17T11:22:02.230Z,19.60
2019-02-17T11:23:02.206Z,20.00
2019-02-17T11:24:02.323Z,20.51
2019-02-17T11:25:02.180Z,20.91
2019-02-17T11:26:02.168Z,20.82
2019-02-17T11:27:02.169Z,20.42
2019-02-17T11:28:02.159Z,20.57
2019-02-17T11:29:02.136Z,20.94
2019-02-17T11:30:02.128Z,20.96
2019-02-17T11:31:02.116Z,20.96
2019-02-17T11:32:02.159Z,20.51
2019-02-17T11:33:02.106Z,20.27
2019-02-17T11:34:02.098Z,20.58
2019-02-17T11:35:02.081Z,20.53
2019-02-17T11:36:02.068Z,20.66
2019-02-17T11:37:02.049Z,20.69
2019-02-17T11:38:02.061Z,20.54
2019-02-17T11:39:02.032Z,20.50
2019-02-17T11:40:02.041Z,20.56
2019-02-17T11:41:02.018Z,21.00
2019-02-17T11:42:01.998Z,21.28
2019-02-17T11:43:01.994Z,21.18
2019-02-17T11:44:01.981Z,21.15
2019-02-17T11:45:01.963Z,21.05
2019-02-17T11:46:01.960Z,20.75
2019-02-17T11:47:01.942Z,20.27
2019-02-17T11:48:01.977Z,20.44
2019-02-17T11:49:01.921Z,20.98
2019-02-17T11:50:01.915Z,21.05
2019-02-17T11:51:01.902Z,21.21
2019-02-17T11:52:01.913Z,21.22
2019-02-17T11:53:01.909Z,21.34
2019-02-17T11:54:01.903Z,21.64
2019-02-17T11:55:01.905Z,21.71
2019-02-17T11:56:01.845Z,21.93
2019-02-17T11:57:01.837Z,22.08
2019-02-17T11:58:01.870Z,22.02
2019-02-17T11:59:01.817Z,22.17
2019-02-17T12:00:01.808Z,22.08
2019-02-17T12:01:02.144Z,21.61
2019-02-17T12:02:01.790Z,21.71
2019-02-17T12:03:07.882Z,21.79
2019-02-17T12:04:02.761Z,21.79
2019-02-17T12:05:01.756Z,21.22
2019-02-17T12:06:01.734Z,20.81
2019-02-17T12:07:01.727Z,20.94
2019-02-17T12:08:01.748Z,21.08
2019-02-17T12:09:01.720Z,21.40
2019-02-17T12:10:01.699Z,21.68
2019-02-17T12:11:01.682Z,20.98
2019-02-17T12:12:01.673Z,21.01
2019-02-17T12:13:01.691Z,21.19
2019-02-17T12:14:01.649Z,21.48
2019-02-17T12:15:01.647Z,21.52
2019-02-17T12:16:01.627Z,21.53
2019-02-17T12:17:01.632Z,21.73
2019-02-17T12:18:01.623Z,21.73
2019-02-17T12:19:01.601Z,21.85
2019-02-17T12:20:01.586Z,21.66
2019-02-17T12:21:01.580Z,21.48
2019-02-17T12:22:01.561Z,21.64
2019-02-17T12:23:01.586Z,21.85
2019-02-17T12:24:02.593Z,21.82
2019-02-17T12:25:01.532Z,21.99
2019-02-17T12:26:01.518Z,22.20
2019-02-17T12:27:01.509Z,22.41
2019-02-17T12:28:01.517Z,22.42
2019-02-17T12:29:01.492Z,22.29
2019-02-17T12:30:01.486Z,22.11
2019-02-17T12:31:01.471Z,21.71
2019-02-17T12:32:01.456Z,21.71
2019-02-17T12:33:01.501Z,21.49
2019-02-17T12:34:01.444Z,21.52
2019-02-17T12:35:01.449Z,21.58
2019-02-17T12:36:01.413Z,21.91
2019-02-17T12:37:01.405Z,21.82
2019-02-17T12:38:01.413Z,21.82
2019-02-17T12:39:01.381Z,22.01
2019-02-17T12:40:01.394Z,22.15
2019-02-17T12:41:01.360Z,22.04
2019-02-17T12:42:01.350Z,22.26
2019-02-17T12:43:01.361Z,22.46
2019-02-17T12:44:01.328Z,22.31
2019-02-17T12:45:01.366Z,22.35
2019-02-17T12:46:01.307Z,22.39
2019-02-17T12:47:01.297Z,22.54
2019-02-17T12:48:01.326Z,22.57
2019-02-17T12:49:01.306Z,22.74
2019-02-17T12:50:01.310Z,22.89
2019-02-17T12:51:01.255Z,22.85
2019-02-17T12:52:01.257Z,22.84
2019-02-17T12:53:01.237Z,22.29
2019-02-17T12:54:01.238Z,21.46
2019-02-17T12:55:01.217Z,21.66
2019-02-17T12:56:01.200Z,22.15
2019-02-17T12:57:01.201Z,22.48
2019-02-17T12:58:01.187Z,22.75
2019-02-17T12:59:01.188Z,22.61
2019-02-17T13:00:01.165Z,22.20
2019-02-17T13:01:01.147Z,22.46
2019-02-17T13:02:01.134Z,22.49
2019-02-17T13:03:01.123Z,22.33
2019-02-17T13:04:01.124Z,21.99
2019-02-17T13:05:01.105Z,21.83
2019-02-17T13:06:01.098Z,22.02
2019-02-17T13:07:01.082Z,22.45
2019-02-17T13:08:01.072Z,22.12
2019-02-17T13:09:01.083Z,21.90
2019-02-17T13:10:01.058Z,22.15
2019-02-17T13:11:01.040Z,22.51
2019-02-17T13:12:01.064Z,22.42
2019-02-17T13:13:01.075Z,22.74
2019-02-17T13:14:01.020Z,22.78
2019-02-17T13:15:01.003Z,22.72
2019-02-17T13:16:00.987Z,22.84